sensor_id;sensor_type;location;lat;lon;timestamp;P1;durP1;ratioP1;P2;durP2;ratioP2
10432;SDS011;5263;48.680;9.004;2022-11-06T00:00:05;21.63;;;14.27;;
10432;SDS011;5263;48.680;9.004;2022-11-06T00:02:31;24.47;;;15.17;;
10432;SDS011;5263;48.680;9.004;2022-11-06T00:04:57;25.47;;;20.33;;
10432;SDS011;5263;48.680;9.004;2022-11-06T00:07:46;24.33;;;17.40;;
10432;SDS011;5263;48.680;9.004;2022-11-06T00:10:12;25.47;;;18.00;;
10432;SDS011;5263;48.680;9.004;2022-11-06T00:12:39;66.00;;;41.00;;
10432;SDS011;5263;48.680;9.004;2022-11-06T00:15:05;74.33;;;46.77;;
10432;SDS011;5263;48.680;9.004;2022-11-06T00:17:31;57.93;;;36.73;;
10432;SDS011;5263;48.680;9.004;2022-11-06T00:19:57;40.17;;;26.50;;
10432;SDS011;5263;48.680;9.004;2022-11-06T00:22:23;39.50;;;27.60;;
10432;SDS011;5263;48.680;9.004;2022-11-06T00:24:49;36.20;;;24.17;;
10432;SDS011;5263;48.680;9.004;2022-11-06T00:27:15;31.30;;;21.67;;
10432;SDS011;5263;48.680;9.004;2022-11-06T00:29:41;32.07;;;21.23;;
10432;SDS011;5263;48.680;9.004;2022-11-06T00:32:07;25.40;;;18.93;;
10432;SDS011;5263;48.680;9.004;2022-11-06T00:34:33;26.57;;;18.30;;
10432;SDS011;5263;48.680;9.004;2022-11-06T00:36:58;23.93;;;17.43;;
10432;SDS011;5263;48.680;9.004;2022-11-06T00:39:24;25.77;;;18.37;;
10432;SDS011;5263;48.680;9.004;2022-11-06T00:41:50;21.70;;;14.13;;
10432;SDS011;5263;48.680;9.004;2022-11-06T00:44:15;17.97;;;14.67;;
10432;SDS011;5263;48.680;9.004;2022-11-06T00:46:41;26.50;;;17.00;;
10432;SDS011;5263;48.680;9.004;2022-11-06T00:49:07;29.60;;;21.90;;
10432;SDS011;5263;48.680;9.004;2022-11-06T00:51:34;26.67;;;18.60;;
10432;SDS011;5263;48.680;9.004;2022-11-06T00:54:03;28.47;;;21.00;;
10432;SDS011;5263;48.680;9.004;2022-11-06T00:56:31;23.87;;;17.37;;
10432;SDS011;5263;48.680;9.004;2022-11-06T00:58:58;26.07;;;15.90;;
10432;SDS011;5263;48.680;9.004;2022-11-06T01:01:34;25.67;;;16.80;;
10432;SDS011;5263;48.680;9.004;2022-11-06T01:04:12;22.67;;;16.40;;
10432;SDS011;5263;48.680;9.004;2022-11-06T01:06:44;23.63;;;16.10;;
10432;SDS011;5263;48.680;9.004;2022-11-06T01:09:12;22.73;;;17.07;;
10432;SDS011;5263;48.680;9.004;2022-11-06T01:11:40;23.87;;;15.83;;
10432;SDS011;5263;48.680;9.004;2022-11-06T01:14:11;20.33;;;16.20;;
10432;SDS011;5263;48.680;9.004;2022-11-06T01:16:38;20.93;;;14.60;;
10432;SDS011;5263;48.680;9.004;2022-11-06T01:19:04;21.87;;;15.07;;
10432;SDS011;5263;48.680;9.004;2022-11-06T01:21:31;21.47;;;15.10;;
10432;SDS011;5263;48.680;9.004;2022-11-06T01:24:00;20.77;;;15.73;;
10432;SDS011;5263;48.680;9.004;2022-11-06T01:26:27;17.10;;;13.17;;
10432;SDS011;5263;48.680;9.004;2022-11-06T01:28:54;23.03;;;12.70;;
10432;SDS011;5263;48.680;9.004;2022-11-06T01:31:22;16.97;;;12.53;;
10432;SDS011;5263;48.680;9.004;2022-11-06T01:33:50;16.57;;;14.40;;
10432;SDS011;5263;48.680;9.004;2022-11-06T01:36:17;19.03;;;13.97;;
10432;SDS011;5263;48.680;9.004;2022-11-06T01:38:44;16.10;;;13.50;;
10432;SDS011;5263;48.680;9.004;2022-11-06T01:41:15;20.63;;;13.37;;
10432;SDS011;5263;48.680;9.004;2022-11-06T01:46:13;19.13;;;13.30;;
10432;SDS011;5263;48.680;9.004;2022-11-06T01:48:40;16.53;;;13.37;;
10432;SDS011;5263;48.680;9.004;2022-11-06T01:51:08;16.20;;;12.10;;
10432;SDS011;5263;48.680;9.004;2022-11-06T01:53:34;19.13;;;13.40;;
10432;SDS011;5263;48.680;9.004;2022-11-06T01:56:02;16.50;;;13.60;;
10432;SDS011;5263;48.680;9.004;2022-11-06T01:58:31;16.57;;;12.43;;
10432;SDS011;5263;48.680;9.004;2022-11-06T02:00:58;18.73;;;12.33;;
10432;SDS011;5263;48.680;9.004;2022-11-06T02:03:24;20.43;;;13.63;;
10432;SDS011;5263;48.680;9.004;2022-11-06T02:05:50;16.90;;;13.20;;
10432;SDS011;5263;48.680;9.004;2022-11-06T02:08:18;17.00;;;13.77;;
10432;SDS011;5263;48.680;9.004;2022-11-06T02:10:45;16.53;;;12.33;;
10432;SDS011;5263;48.680;9.004;2022-11-06T02:16:11;22.20;;;14.00;;
10432;SDS011;5263;48.680;9.004;2022-11-06T02:18:49;15.63;;;12.87;;
10432;SDS011;5263;48.680;9.004;2022-11-06T02:21:41;14.73;;;11.60;;
10432;SDS011;5263;48.680;9.004;2022-11-06T02:27:21;12.67;;;11.30;;
10432;SDS011;5263;48.680;9.004;2022-11-06T02:32:18;13.87;;;10.37;;
10432;SDS011;5263;48.680;9.004;2022-11-06T02:37:56;13.10;;;10.10;;
10432;SDS011;5263;48.680;9.004;2022-11-06T02:40:25;11.97;;;10.67;;
10432;SDS011;5263;48.680;9.004;2022-11-06T02:42:57;12.70;;;10.67;;
10432;SDS011;5263;48.680;9.004;2022-11-06T02:45:26;11.60;;;10.40;;
10432;SDS011;5263;48.680;9.004;2022-11-06T02:47:55;10.60;;;9.33;;
10432;SDS011;5263;48.680;9.004;2022-11-06T02:50:24;12.53;;;9.40;;
10432;SDS011;5263;48.680;9.004;2022-11-06T02:52:55;12.07;;;9.67;;
10432;SDS011;5263;48.680;9.004;2022-11-06T02:55:28;12.43;;;9.37;;
10432;SDS011;5263;48.680;9.004;2022-11-06T02:58:02;13.27;;;9.77;;
10432;SDS011;5263;48.680;9.004;2022-11-06T03:00:32;12.93;;;9.70;;
10432;SDS011;5263;48.680;9.004;2022-11-06T03:03:04;10.43;;;9.43;;
10432;SDS011;5263;48.680;9.004;2022-11-06T03:05:37;13.73;;;9.00;;
10432;SDS011;5263;48.680;9.004;2022-11-06T03:08:17;9.93;;;8.93;;
10432;SDS011;5263;48.680;9.004;2022-11-06T03:16:24;11.63;;;9.23;;
10432;SDS011;5263;48.680;9.004;2022-11-06T03:18:58;11.30;;;10.10;;
10432;SDS011;5263;48.680;9.004;2022-11-06T03:24:30;9.87;;;8.77;;
10432;SDS011;5263;48.680;9.004;2022-11-06T03:27:06;13.70;;;10.30;;
10432;SDS011;5263;48.680;9.004;2022-11-06T03:29:38;10.90;;;9.23;;
10432;SDS011;5263;48.680;9.004;2022-11-06T03:32:11;11.23;;;9.03;;
10432;SDS011;5263;48.680;9.004;2022-11-06T03:37:53;10.73;;;8.27;;
10432;SDS011;5263;48.680;9.004;2022-11-06T03:40:37;9.80;;;8.63;;
10432;SDS011;5263;48.680;9.004;2022-11-06T03:43:07;10.60;;;8.97;;
10432;SDS011;5263;48.680;9.004;2022-11-06T03:45:37;10.93;;;8.90;;
10432;SDS011;5263;48.680;9.004;2022-11-06T03:48:21;9.67;;;8.67;;
10432;SDS011;5263;48.680;9.004;2022-11-06T03:53:22;10.97;;;8.23;;
10432;SDS011;5263;48.680;9.004;2022-11-06T03:55:53;9.33;;;8.23;;
10432;SDS011;5263;48.680;9.004;2022-11-06T03:58:26;14.40;;;9.03;;
10432;SDS011;5263;48.680;9.004;2022-11-06T04:00:56;11.03;;;9.43;;
10432;SDS011;5263;48.680;9.004;2022-11-06T04:03:29;10.67;;;9.47;;
10432;SDS011;5263;48.680;9.004;2022-11-06T04:06:23;10.47;;;8.70;;
10432;SDS011;5263;48.680;9.004;2022-11-06T04:09:00;9.50;;;8.23;;
10432;SDS011;5263;48.680;9.004;2022-11-06T04:11:47;13.77;;;8.63;;
10432;SDS011;5263;48.680;9.004;2022-11-06T04:14:33;11.40;;;8.27;;
10432;SDS011;5263;48.680;9.004;2022-11-06T04:17:02;8.70;;;7.80;;
10432;SDS011;5263;48.680;9.004;2022-11-06T04:19:30;11.80;;;8.90;;
10432;SDS011;5263;48.680;9.004;2022-11-06T04:25:18;9.77;;;8.77;;
10432;SDS011;5263;48.680;9.004;2022-11-06T04:31:04;10.03;;;7.63;;
10432;SDS011;5263;48.680;9.004;2022-11-06T04:33:40;10.40;;;8.03;;
10432;SDS011;5263;48.680;9.004;2022-11-06T04:36:31;11.07;;;8.37;;
10432;SDS011;5263;48.680;9.004;2022-11-06T04:42:04;9.47;;;8.17;;
10432;SDS011;5263;48.680;9.004;2022-11-06T04:44:41;10.17;;;8.30;;
10432;SDS011;5263;48.680;9.004;2022-11-06T04:47:12;12.53;;;9.00;;
10432;SDS011;5263;48.680;9.004;2022-11-06T04:49:41;17.33;;;8.93;;
10432;SDS011;5263;48.680;9.004;2022-11-06T04:52:08;12.27;;;9.13;;
10432;SDS011;5263;48.680;9.004;2022-11-06T04:54:37;10.03;;;8.93;;
10432;SDS011;5263;48.680;9.004;2022-11-06T04:57:03;10.10;;;8.93;;
10432;SDS011;5263;48.680;9.004;2022-11-06T04:59:29;9.80;;;7.87;;
10432;SDS011;5263;48.680;9.004;2022-11-06T05:02:01;9.60;;;8.60;;
10432;SDS011;5263;48.680;9.004;2022-11-06T05:04:27;13.73;;;8.07;;
10432;SDS011;5263;48.680;9.004;2022-11-06T05:06:53;9.10;;;7.67;;
10432;SDS011;5263;48.680;9.004;2022-11-06T05:09:18;7.30;;;6.43;;
10432;SDS011;5263;48.680;9.004;2022-11-06T05:11:44;7.53;;;6.77;;
10432;SDS011;5263;48.680;9.004;2022-11-06T05:14:10;5.93;;;5.33;;
10432;SDS011;5263;48.680;9.004;2022-11-06T05:16:35;5.70;;;5.13;;
10432;SDS011;5263;48.680;9.004;2022-11-06T05:19:01;7.07;;;4.00;;
10432;SDS011;5263;48.680;9.004;2022-11-06T05:21:27;9.40;;;4.67;;
10432;SDS011;5263;48.680;9.004;2022-11-06T05:24:11;6.87;;;4.43;;
10432;SDS011;5263;48.680;9.004;2022-11-06T05:26:36;114.67;;;9.30;;
10432;SDS011;5263;48.680;9.004;2022-11-06T05:29:02;83.93;;;8.27;;
10432;SDS011;5263;48.680;9.004;2022-11-06T05:31:28;81.30;;;7.83;;
10432;SDS011;5263;48.680;9.004;2022-11-06T05:33:53;36.53;;;6.60;;
10432;SDS011;5263;48.680;9.004;2022-11-06T05:36:19;70.57;;;7.90;;
10432;SDS011;5263;48.680;9.004;2022-11-06T05:38:45;7.37;;;4.40;;
10432;SDS011;5263;48.680;9.004;2022-11-06T05:41:10;9.53;;;4.20;;
10432;SDS011;5263;48.680;9.004;2022-11-06T05:43:36;5.00;;;4.30;;
10432;SDS011;5263;48.680;9.004;2022-11-06T05:46:02;5.23;;;4.73;;
10432;SDS011;5263;48.680;9.004;2022-11-06T05:48:27;4.67;;;4.33;;
10432;SDS011;5263;48.680;9.004;2022-11-06T05:50:58;5.27;;;4.77;;
10432;SDS011;5263;48.680;9.004;2022-11-06T05:53:25;6.13;;;4.33;;
10432;SDS011;5263;48.680;9.004;2022-11-06T05:55:51;4.63;;;4.17;;
10432;SDS011;5263;48.680;9.004;2022-11-06T05:58:16;7.63;;;5.67;;
10432;SDS011;5263;48.680;9.004;2022-11-06T06:00:42;5.57;;;5.07;;
10432;SDS011;5263;48.680;9.004;2022-11-06T06:03:08;8.47;;;7.57;;
10432;SDS011;5263;48.680;9.004;2022-11-06T06:05:34;9.07;;;8.17;;
10432;SDS011;5263;48.680;9.004;2022-11-06T06:08:00;8.70;;;6.83;;
10432;SDS011;5263;48.680;9.004;2022-11-06T06:10:25;7.33;;;6.33;;
10432;SDS011;5263;48.680;9.004;2022-11-06T06:12:51;7.90;;;6.50;;
10432;SDS011;5263;48.680;9.004;2022-11-06T06:15:16;6.00;;;5.40;;
10432;SDS011;5263;48.680;9.004;2022-11-06T06:17:42;6.03;;;5.43;;
10432;SDS011;5263;48.680;9.004;2022-11-06T06:20:09;10.23;;;7.00;;
10432;SDS011;5263;48.680;9.004;2022-11-06T06:22:35;7.03;;;5.57;;
10432;SDS011;5263;48.680;9.004;2022-11-06T06:25:01;8.37;;;7.57;;
10432;SDS011;5263;48.680;9.004;2022-11-06T06:27:26;7.00;;;6.30;;
10432;SDS011;5263;48.680;9.004;2022-11-06T06:29:52;8.40;;;6.43;;
10432;SDS011;5263;48.680;9.004;2022-11-06T06:32:18;7.37;;;6.50;;
10432;SDS011;5263;48.680;9.004;2022-11-06T06:34:44;7.23;;;6.13;;
10432;SDS011;5263;48.680;9.004;2022-11-06T06:37:09;7.43;;;6.67;;
10432;SDS011;5263;48.680;9.004;2022-11-06T06:39:35;7.17;;;6.47;;
10432;SDS011;5263;48.680;9.004;2022-11-06T06:42:01;7.13;;;6.43;;
10432;SDS011;5263;48.680;9.004;2022-11-06T06:44:26;7.73;;;6.87;;
10432;SDS011;5263;48.680;9.004;2022-11-06T06:46:52;6.80;;;6.20;;
10432;SDS011;5263;48.680;9.004;2022-11-06T06:49:17;6.53;;;5.87;;
10432;SDS011;5263;48.680;9.004;2022-11-06T06:51:43;6.93;;;6.23;;
10432;SDS011;5263;48.680;9.004;2022-11-06T06:54:08;6.87;;;6.10;;
10432;SDS011;5263;48.680;9.004;2022-11-06T06:56:34;6.67;;;6.03;;
10432;SDS011;5263;48.680;9.004;2022-11-06T06:59:00;12.80;;;7.37;;
10432;SDS011;5263;48.680;9.004;2022-11-06T07:01:25;6.80;;;6.00;;
10432;SDS011;5263;48.680;9.004;2022-11-06T07:03:51;7.77;;;6.23;;
10432;SDS011;5263;48.680;9.004;2022-11-06T07:06:17;10.47;;;7.40;;
10432;SDS011;5263;48.680;9.004;2022-11-06T07:08:43;8.27;;;6.83;;
10432;SDS011;5263;48.680;9.004;2022-11-06T07:11:09;9.80;;;6.63;;
10432;SDS011;5263;48.680;9.004;2022-11-06T07:13:35;9.27;;;6.73;;
10432;SDS011;5263;48.680;9.004;2022-11-06T07:16:04;8.17;;;6.43;;
10432;SDS011;5263;48.680;9.004;2022-11-06T07:18:32;7.43;;;6.43;;
10432;SDS011;5263;48.680;9.004;2022-11-06T07:20:58;7.00;;;6.20;;
10432;SDS011;5263;48.680;9.004;2022-11-06T07:23:24;7.97;;;6.30;;
10432;SDS011;5263;48.680;9.004;2022-11-06T07:25:53;9.13;;;6.53;;
10432;SDS011;5263;48.680;9.004;2022-11-06T07:28:18;6.43;;;5.83;;
10432;SDS011;5263;48.680;9.004;2022-11-06T07:30:45;7.27;;;6.50;;
10432;SDS011;5263;48.680;9.004;2022-11-06T07:33:10;7.87;;;7.07;;
10432;SDS011;5263;48.680;9.004;2022-11-06T07:35:36;7.30;;;6.60;;
10432;SDS011;5263;48.680;9.004;2022-11-06T07:38:05;6.70;;;6.10;;
10432;SDS011;5263;48.680;9.004;2022-11-06T07:40:34;9.23;;;5.80;;
10432;SDS011;5263;48.680;9.004;2022-11-06T07:43:04;6.83;;;6.00;;
10432;SDS011;5263;48.680;9.004;2022-11-06T07:45:31;9.60;;;5.83;;
10432;SDS011;5263;48.680;9.004;2022-11-06T07:47:56;8.37;;;6.77;;
10432;SDS011;5263;48.680;9.004;2022-11-06T07:50:23;7.80;;;7.00;;
10432;SDS011;5263;48.680;9.004;2022-11-06T07:52:50;8.20;;;6.20;;
10432;SDS011;5263;48.680;9.004;2022-11-06T07:55:15;6.47;;;5.60;;
10432;SDS011;5263;48.680;9.004;2022-11-06T07:57:41;6.80;;;6.10;;
10432;SDS011;5263;48.680;9.004;2022-11-06T08:00:07;10.13;;;7.70;;
10432;SDS011;5263;48.680;9.004;2022-11-06T08:02:33;7.30;;;6.60;;
10432;SDS011;5263;48.680;9.004;2022-11-06T08:04:58;8.10;;;6.40;;
10432;SDS011;5263;48.680;9.004;2022-11-06T08:07:24;6.53;;;5.93;;
10432;SDS011;5263;48.680;9.004;2022-11-06T08:09:50;8.37;;;6.20;;
10432;SDS011;5263;48.680;9.004;2022-11-06T08:12:15;7.73;;;6.67;;
10432;SDS011;5263;48.680;9.004;2022-11-06T08:14:41;7.70;;;6.90;;
10432;SDS011;5263;48.680;9.004;2022-11-06T08:17:07;7.00;;;6.30;;
10432;SDS011;5263;48.680;9.004;2022-11-06T08:19:32;6.57;;;5.93;;
10432;SDS011;5263;48.680;9.004;2022-11-06T08:21:58;6.57;;;5.97;;
10432;SDS011;5263;48.680;9.004;2022-11-06T08:24:24;6.50;;;5.77;;
10432;SDS011;5263;48.680;9.004;2022-11-06T08:26:49;6.30;;;5.57;;
10432;SDS011;5263;48.680;9.004;2022-11-06T08:29:15;8.57;;;5.73;;
10432;SDS011;5263;48.680;9.004;2022-11-06T08:31:41;6.87;;;6.17;;
10432;SDS011;5263;48.680;9.004;2022-11-06T08:34:06;6.73;;;6.03;;
10432;SDS011;5263;48.680;9.004;2022-11-06T08:36:36;5.40;;;4.77;;
10432;SDS011;5263;48.680;9.004;2022-11-06T08:39:14;3.87;;;3.63;;
10432;SDS011;5263;48.680;9.004;2022-11-06T08:41:39;4.40;;;4.00;;
10432;SDS011;5263;48.680;9.004;2022-11-06T08:44:05;7.13;;;4.43;;
10432;SDS011;5263;48.680;9.004;2022-11-06T08:46:31;4.47;;;3.40;;
10432;SDS011;5263;48.680;9.004;2022-11-06T08:48:57;3.53;;;3.30;;
10432;SDS011;5263;48.680;9.004;2022-11-06T08:51:22;4.07;;;3.07;;
10432;SDS011;5263;48.680;9.004;2022-11-06T08:53:48;3.17;;;2.93;;
10432;SDS011;5263;48.680;9.004;2022-11-06T08:56:13;3.23;;;3.03;;
10432;SDS011;5263;48.680;9.004;2022-11-06T08:58:39;4.43;;;4.03;;
10432;SDS011;5263;48.680;9.004;2022-11-06T09:01:05;2.77;;;2.57;;
10432;SDS011;5263;48.680;9.004;2022-11-06T09:03:30;2.40;;;2.20;;
10432;SDS011;5263;48.680;9.004;2022-11-06T09:05:56;3.17;;;2.90;;
10432;SDS011;5263;48.680;9.004;2022-11-06T09:08:21;3.00;;;2.27;;
10432;SDS011;5263;48.680;9.004;2022-11-06T09:10:48;3.07;;;2.47;;
10432;SDS011;5263;48.680;9.004;2022-11-06T09:13:14;2.63;;;2.43;;
10432;SDS011;5263;48.680;9.004;2022-11-06T09:15:40;2.50;;;2.30;;
10432;SDS011;5263;48.680;9.004;2022-11-06T09:18:05;3.40;;;3.13;;
10432;SDS011;5263;48.680;9.004;2022-11-06T09:20:31;3.07;;;2.83;;
10432;SDS011;5263;48.680;9.004;2022-11-06T09:23:01;3.20;;;2.27;;
10432;SDS011;5263;48.680;9.004;2022-11-06T09:25:30;3.50;;;2.00;;
10432;SDS011;5263;48.680;9.004;2022-11-06T09:27:56;1.80;;;1.70;;
10432;SDS011;5263;48.680;9.004;2022-11-06T09:30:23;2.50;;;2.30;;
10432;SDS011;5263;48.680;9.004;2022-11-06T09:32:51;2.60;;;2.40;;
10432;SDS011;5263;48.680;9.004;2022-11-06T09:35:22;1.93;;;1.77;;
10432;SDS011;5263;48.680;9.004;2022-11-06T09:37:49;4.17;;;3.83;;
10432;SDS011;5263;48.680;9.004;2022-11-06T09:40:19;2.70;;;2.50;;
10432;SDS011;5263;48.680;9.004;2022-11-06T09:42:59;2.17;;;2.03;;
10432;SDS011;5263;48.680;9.004;2022-11-06T09:45:46;1.70;;;1.60;;
10432;SDS011;5263;48.680;9.004;2022-11-06T09:48:23;2.00;;;1.90;;
10432;SDS011;5263;48.680;9.004;2022-11-06T09:50:57;2.43;;;2.23;;
10432;SDS011;5263;48.680;9.004;2022-11-06T09:53:39;4.13;;;2.23;;
10432;SDS011;5263;48.680;9.004;2022-11-06T09:56:11;2.70;;;2.50;;
10432;SDS011;5263;48.680;9.004;2022-11-06T09:58:39;1.80;;;1.70;;
10432;SDS011;5263;48.680;9.004;2022-11-06T10:01:18;1.87;;;1.77;;
10432;SDS011;5263;48.680;9.004;2022-11-06T10:06:20;1.83;;;1.73;;
10432;SDS011;5263;48.680;9.004;2022-11-06T10:08:46;2.47;;;2.37;;
10432;SDS011;5263;48.680;9.004;2022-11-06T10:16:13;3.13;;;1.97;;
10432;SDS011;5263;48.680;9.004;2022-11-06T10:25:00;1.70;;;1.60;;
10432;SDS011;5263;48.680;9.004;2022-11-06T10:30:39;1.90;;;1.80;;
10432;SDS011;5263;48.680;9.004;2022-11-06T10:36:20;2.10;;;2.00;;
10432;SDS011;5263;48.680;9.004;2022-11-06T10:38:49;2.13;;;2.00;;
10432;SDS011;5263;48.680;9.004;2022-11-06T10:41:25;7.40;;;3.53;;
10432;SDS011;5263;48.680;9.004;2022-11-06T10:43:57;2.33;;;1.47;;
10432;SDS011;5263;48.680;9.004;2022-11-06T10:48:56;1.07;;;1.07;;
10432;SDS011;5263;48.680;9.004;2022-11-06T10:57:04;1.70;;;1.60;;
10432;SDS011;5263;48.680;9.004;2022-11-06T10:59:51;2.03;;;1.93;;
10432;SDS011;5263;48.680;9.004;2022-11-06T11:02:20;4.03;;;1.37;;
10432;SDS011;5263;48.680;9.004;2022-11-06T11:04:58;1.30;;;1.20;;
10432;SDS011;5263;48.680;9.004;2022-11-06T11:07:24;1.30;;;1.20;;
10432;SDS011;5263;48.680;9.004;2022-11-06T11:09:55;0.90;;;0.90;;
10432;SDS011;5263;48.680;9.004;2022-11-06T11:12:22;1.07;;;1.07;;
10432;SDS011;5263;48.680;9.004;2022-11-06T11:15:11;0.93;;;0.93;;
10432;SDS011;5263;48.680;9.004;2022-11-06T11:17:40;0.83;;;0.83;;
10432;SDS011;5263;48.680;9.004;2022-11-06T11:20:28;0.90;;;0.90;;
10432;SDS011;5263;48.680;9.004;2022-11-06T11:23:04;1.17;;;1.13;;
10432;SDS011;5263;48.680;9.004;2022-11-06T11:25:29;1.93;;;1.67;;
10432;SDS011;5263;48.680;9.004;2022-11-06T11:27:58;2.00;;;0.93;;
10432;SDS011;5263;48.680;9.004;2022-11-06T11:30:26;0.93;;;0.93;;
10432;SDS011;5263;48.680;9.004;2022-11-06T11:33:11;0.70;;;0.70;;
10432;SDS011;5263;48.680;9.004;2022-11-06T11:35:37;0.70;;;0.70;;
10432;SDS011;5263;48.680;9.004;2022-11-06T11:38:09;0.70;;;0.70;;
10432;SDS011;5263;48.680;9.004;2022-11-06T11:40:38;1.53;;;1.00;;
10432;SDS011;5263;48.680;9.004;2022-11-06T11:48:50;1.27;;;0.80;;
10432;SDS011;5263;48.680;9.004;2022-11-06T11:56:53;3.73;;;0.63;;
10432;SDS011;5263;48.680;9.004;2022-11-06T11:59:48;0.80;;;0.80;;
10432;SDS011;5263;48.680;9.004;2022-11-06T12:02:33;0.97;;;0.63;;
10432;SDS011;5263;48.680;9.004;2022-11-06T12:05:23;0.60;;;0.60;;
10432;SDS011;5263;48.680;9.004;2022-11-06T12:08:01;0.53;;;0.53;;
10432;SDS011;5263;48.680;9.004;2022-11-06T12:10:33;0.70;;;0.70;;
10432;SDS011;5263;48.680;9.004;2022-11-06T12:13:04;0.60;;;0.60;;
10432;SDS011;5263;48.680;9.004;2022-11-06T12:15:44;0.70;;;0.70;;
10432;SDS011;5263;48.680;9.004;2022-11-06T12:18:32;0.70;;;0.70;;
10432;SDS011;5263;48.680;9.004;2022-11-06T12:23:52;0.57;;;0.57;;
10432;SDS011;5263;48.680;9.004;2022-11-06T12:26:29;0.60;;;0.60;;
10432;SDS011;5263;48.680;9.004;2022-11-06T12:29:10;1.10;;;0.50;;
10432;SDS011;5263;48.680;9.004;2022-11-06T12:31:58;0.50;;;0.50;;
10432;SDS011;5263;48.680;9.004;2022-11-06T12:34:39;0.70;;;0.70;;
10432;SDS011;5263;48.680;9.004;2022-11-06T12:37:34;0.50;;;0.50;;
10432;SDS011;5263;48.680;9.004;2022-11-06T12:43:01;2.50;;;2.30;;
10432;SDS011;5263;48.680;9.004;2022-11-06T12:54:27;0.70;;;0.70;;
10432;SDS011;5263;48.680;9.004;2022-11-06T12:57:19;0.50;;;0.50;;
10432;SDS011;5263;48.680;9.004;2022-11-06T13:00:03;0.60;;;0.60;;
10432;SDS011;5263;48.680;9.004;2022-11-06T13:05:18;0.53;;;0.53;;
10432;SDS011;5263;48.680;9.004;2022-11-06T13:13:27;0.60;;;0.60;;
10432;SDS011;5263;48.680;9.004;2022-11-06T13:21:17;0.60;;;0.60;;
10432;SDS011;5263;48.680;9.004;2022-11-06T13:23:54;0.60;;;0.60;;
10432;SDS011;5263;48.680;9.004;2022-11-06T13:26:31;0.80;;;0.80;;
10432;SDS011;5263;48.680;9.004;2022-11-06T13:29:12;0.50;;;0.50;;
10432;SDS011;5263;48.680;9.004;2022-11-06T13:31:49;2.07;;;0.60;;
10432;SDS011;5263;48.680;9.004;2022-11-06T13:34:23;0.63;;;0.63;;
10432;SDS011;5263;48.680;9.004;2022-11-06T13:36:55;0.50;;;0.50;;
10432;SDS011;5263;48.680;9.004;2022-11-06T13:41:51;0.87;;;0.87;;
10432;SDS011;5263;48.680;9.004;2022-11-06T13:44:18;0.67;;;0.50;;
10432;SDS011;5263;48.680;9.004;2022-11-06T13:46:59;2.30;;;0.80;;
10432;SDS011;5263;48.680;9.004;2022-11-06T13:55:01;0.80;;;0.80;;
10432;SDS011;5263;48.680;9.004;2022-11-06T14:00:20;1.43;;;1.20;;
10432;SDS011;5263;48.680;9.004;2022-11-06T14:05:44;0.80;;;0.80;;
10432;SDS011;5263;48.680;9.004;2022-11-06T14:08:26;0.60;;;0.60;;
10432;SDS011;5263;48.680;9.004;2022-11-06T14:11:32;0.50;;;0.50;;
10432;SDS011;5263;48.680;9.004;2022-11-06T14:14:02;0.40;;;0.40;;
10432;SDS011;5263;48.680;9.004;2022-11-06T14:16:36;0.73;;;0.73;;
10432;SDS011;5263;48.680;9.004;2022-11-06T14:21:49;1.23;;;1.00;;
10432;SDS011;5263;48.680;9.004;2022-11-06T14:24:30;0.60;;;0.60;;
10432;SDS011;5263;48.680;9.004;2022-11-06T14:26:57;0.60;;;0.60;;
10432;SDS011;5263;48.680;9.004;2022-11-06T14:34:37;2.30;;;1.80;;
10432;SDS011;5263;48.680;9.004;2022-11-06T14:52:49;1.53;;;1.43;;
10432;SDS011;5263;48.680;9.004;2022-11-06T14:57:57;5.23;;;1.43;;
10432;SDS011;5263;48.680;9.004;2022-11-06T15:00:53;1.67;;;1.37;;
10432;SDS011;5263;48.680;9.004;2022-11-06T15:05:55;0.70;;;0.70;;
10432;SDS011;5263;48.680;9.004;2022-11-06T15:11:55;2.70;;;1.17;;
10432;SDS011;5263;48.680;9.004;2022-11-06T15:16:46;1.60;;;1.03;;
10432;SDS011;5263;48.680;9.004;2022-11-06T15:19:15;1.57;;;1.33;;
10432;SDS011;5263;48.680;9.004;2022-11-06T15:24:48;1.87;;;1.70;;
10432;SDS011;5263;48.680;9.004;2022-11-06T15:27:24;1.80;;;1.40;;
10432;SDS011;5263;48.680;9.004;2022-11-06T15:29:54;1.70;;;1.43;;
10432;SDS011;5263;48.680;9.004;2022-11-06T15:32:23;5.17;;;3.57;;
10432;SDS011;5263;48.680;9.004;2022-11-06T15:35:05;9.30;;;6.30;;
10432;SDS011;5263;48.680;9.004;2022-11-06T15:37:39;4.27;;;3.77;;
10432;SDS011;5263;48.680;9.004;2022-11-06T15:42:48;1.37;;;1.27;;
10432;SDS011;5263;48.680;9.004;2022-11-06T15:47:40;0.90;;;0.90;;
10432;SDS011;5263;48.680;9.004;2022-11-06T15:50:18;1.20;;;1.20;;
10432;SDS011;5263;48.680;9.004;2022-11-06T15:52:46;1.90;;;1.70;;
10432;SDS011;5263;48.680;9.004;2022-11-06T15:57:52;2.77;;;1.77;;
10432;SDS011;5263;48.680;9.004;2022-11-06T16:00:19;1.90;;;1.80;;
10432;SDS011;5263;48.680;9.004;2022-11-06T16:05:14;1.20;;;1.20;;
10432;SDS011;5263;48.680;9.004;2022-11-06T16:07:42;1.37;;;1.27;;
10432;SDS011;5263;48.680;9.004;2022-11-06T16:10:14;1.07;;;1.07;;
10432;SDS011;5263;48.680;9.004;2022-11-06T16:12:41;4.93;;;1.33;;
10432;SDS011;5263;48.680;9.004;2022-11-06T16:23:18;3.93;;;3.17;;
10432;SDS011;5263;48.680;9.004;2022-11-06T16:28:16;3.43;;;3.13;;
10432;SDS011;5263;48.680;9.004;2022-11-06T16:30:44;3.17;;;2.87;;
10432;SDS011;5263;48.680;9.004;2022-11-06T16:33:19;3.47;;;3.17;;
10432;SDS011;5263;48.680;9.004;2022-11-06T16:35:48;2.93;;;2.63;;
10432;SDS011;5263;48.680;9.004;2022-11-06T16:40:50;3.47;;;3.03;;
10432;SDS011;5263;48.680;9.004;2022-11-06T16:43:18;2.93;;;2.73;;
10432;SDS011;5263;48.680;9.004;2022-11-06T16:51:03;2.07;;;1.97;;
10432;SDS011;5263;48.680;9.004;2022-11-06T16:53:52;2.77;;;2.50;;
10432;SDS011;5263;48.680;9.004;2022-11-06T16:56:26;2.40;;;2.23;;
10432;SDS011;5263;48.680;9.004;2022-11-06T16:58:55;2.97;;;2.77;;
10432;SDS011;5263;48.680;9.004;2022-11-06T17:01:25;3.50;;;3.00;;
10432;SDS011;5263;48.680;9.004;2022-11-06T17:06:26;4.47;;;4.00;;
10432;SDS011;5263;48.680;9.004;2022-11-06T17:08:57;3.50;;;3.20;;
10432;SDS011;5263;48.680;9.004;2022-11-06T17:11:25;4.33;;;3.93;;
10432;SDS011;5263;48.680;9.004;2022-11-06T17:13:55;2.50;;;2.30;;
10432;SDS011;5263;48.680;9.004;2022-11-06T17:16:22;1.50;;;1.40;;
10432;SDS011;5263;48.680;9.004;2022-11-06T17:18:49;1.60;;;1.50;;
10432;SDS011;5263;48.680;9.004;2022-11-06T17:21:23;1.40;;;1.30;;
10432;SDS011;5263;48.680;9.004;2022-11-06T17:23:51;4.63;;;3.70;;
10432;SDS011;5263;48.680;9.004;2022-11-06T17:26:23;1.33;;;1.30;;
10432;SDS011;5263;48.680;9.004;2022-11-06T17:28:54;1.37;;;1.27;;
10432;SDS011;5263;48.680;9.004;2022-11-06T17:31:21;1.47;;;1.37;;
10432;SDS011;5263;48.680;9.004;2022-11-06T17:33:48;2.30;;;1.87;;
10432;SDS011;5263;48.680;9.004;2022-11-06T17:36:15;3.43;;;2.27;;
10432;SDS011;5263;48.680;9.004;2022-11-06T17:38:43;1.37;;;1.27;;
10432;SDS011;5263;48.680;9.004;2022-11-06T17:41:09;2.03;;;1.50;;
10432;SDS011;5263;48.680;9.004;2022-11-06T17:43:35;2.13;;;1.20;;
10432;SDS011;5263;48.680;9.004;2022-11-06T17:46:01;0.97;;;0.97;;
10432;SDS011;5263;48.680;9.004;2022-11-06T17:48:27;2.40;;;1.30;;
10432;SDS011;5263;48.680;9.004;2022-11-06T17:50:55;1.40;;;1.30;;
10432;SDS011;5263;48.680;9.004;2022-11-06T17:53:39;1.00;;;1.00;;
10432;SDS011;5263;48.680;9.004;2022-11-06T17:56:05;2.90;;;1.40;;
10432;SDS011;5263;48.680;9.004;2022-11-06T17:58:32;1.23;;;1.13;;
10432;SDS011;5263;48.680;9.004;2022-11-06T18:01:07;1.40;;;1.30;;
10432;SDS011;5263;48.680;9.004;2022-11-06T18:03:35;0.83;;;0.83;;
10432;SDS011;5263;48.680;9.004;2022-11-06T18:06:11;1.67;;;1.17;;
10432;SDS011;5263;48.680;9.004;2022-11-06T18:08:38;1.30;;;1.20;;
10432;SDS011;5263;48.680;9.004;2022-11-06T18:11:04;1.00;;;1.00;;
10432;SDS011;5263;48.680;9.004;2022-11-06T18:13:30;3.27;;;1.80;;
10432;SDS011;5263;48.680;9.004;2022-11-06T18:15:56;1.17;;;0.97;;
10432;SDS011;5263;48.680;9.004;2022-11-06T18:18:22;1.47;;;1.37;;
10432;SDS011;5263;48.680;9.004;2022-11-06T18:20:48;1.23;;;1.10;;